Time,TemperatureF,DewpointF,PressureIn,WindDirection,WindDirectionDegrees,WindSpeedMPH,WindSpeedGustMPH,Humidity,HourlyPrecipIn,Conditions,Clouds,dailyrainin,SoftwareType,DateUTC
2013-07-24 00:00:00,64.1,62.0,29.58,WNW,287,0.0,0.0,93,0.00,,---,1.74,VWS V14.01,2013-07-24 04:00:00,
2013-07-24 00:05:00,64.1,62.0,29.58,WNW,287,0.0,1.0,93,0.00,,---,0.00,VWS V14.01,2013-07-24 04:05:00,
2013-07-24 00:10:00,64.1,62.0,29.58,WNW,287,0.0,0.0,93,0.00,,---,0.00,VWS V14.01,2013-07-24 04:10:00,
2013-07-24 00:15:00,64.1,62.0,29.58,WNW,287,0.0,0.0,93,0.00,,---,0.00,VWS V14.01,2013-07-24 04:15:00,
2013-07-24 00:20:00,64.1,62.0,29.58,WNW,287,1.0,1.0,93,0.00,,---,0.00,VWS V14.01,2013-07-24 04:20:00,
2013-07-24 00:25:00,64.0,61.9,29.58,WNW,287,0.0,1.0,93,0.00,,---,0.00,VWS V14.01,2013-07-24 04:25:00,
2013-07-24 00:30:00,63.9,61.8,29.57,WNW,287,0.0,0.0,93,0.00,,---,0.00,VWS V14.01,2013-07-24 04:30:00,
2013-07-24 00:40:00,63.8,61.7,29.56,WNW,287,0.0,0.0,93,0.00,,---,0.00,VWS V14.01,2013-07-24 04:40:00,
2013-07-24 00:45:00,63.8,61.7,29.56,WNW,287,0.0,0.0,93,0.00,,---,0.00,VWS V14.01,2013-07-24 04:45:00,
2013-07-24 00:50:00,63.7,61.6,29.56,WNW,287,0.0,0.0,93,0.00,,---,0.00,VWS V14.01,2013-07-24 04:50:00,
2013-07-24 00:55:00,63.7,61.6,29.57,WNW,287,0.0,0.0,93,0.00,,---,0.00,VWS V14.01,2013-07-24 04:55:00,
2013-07-24 01:00:00,63.8,61.7,29.57,WNW,287,0.0,0.0,93,0.00,,---,0.00,VWS V14.01,2013-07-24 05:00:00,
2013-07-24 01:05:00,63.8,61.7,29.57,WNW,287,0.0,0.0,93,0.00,,---,0.00,VWS V14.01,2013-07-24 05:05:00,
2013-07-24 01:10:00,63.8,61.7,29.56,WNW,287,0.0,0.0,93,0.00,,---,0.00,VWS V14.01,2013-07-24 05:10:00,
2013-07-24 01:15:00,63.9,61.8,29.57,WNW,287,0.0,1.0,93,0.00,,---,0.00,VWS V14.01,2013-07-24 05:15:00,
2013-07-24 01:20:00,63.9,61.8,29.57,WNW,287,0.0,0.0,93,0.00,,---,0.00,VWS V14.01,2013-07-24 05:20:00,
2013-07-24 01:30:00,64.0,61.6,29.56,WNW,287,0.0,0.0,92,0.00,,---,0.00,VWS V14.01,2013-07-24 05:30:00,
2013-07-24 01:35:00,64.0,61.6,29.56,WNW,287,0.0,0.0,92,0.00,,---,0.00,VWS V14.01,2013-07-24 05:35:00,
2013-07-24 01:40:00,64.1,61.7,29.56,WNW,287,0.0,0.0,92,0.00,,---,0.00,VWS V14.01,2013-07-24 05:40:00,
2013-07-24 01:45:00,64.3,61.9,29.57,WNW,287,0.0,0.0,92,0.00,,---,0.00,VWS V14.01,2013-07-24 05:45:00,
2013-07-24 01:50:00,64.3,61.9,29.56,WNW,287,0.0,1.0,92,0.00,,---,0.00,VWS V14.01,2013-07-24 05:50:00,
2013-07-24 01:55:00,64.3,61.9,29.56,WNW,287,0.0,1.0,92,0.00,,---,0.00,VWS V14.01,2013-07-24 05:55:00,
2013-07-24 02:05:00,64.3,61.9,29.56,WNW,287,0.0,0.0,92,0.00,,---,0.00,VWS V14.01,2013-07-24 06:05:00,
2013-07-24 02:10:00,64.4,62.0,29.56,WNW,287,0.0,0.0,92,0.00,,---,0.00,VWS V14.01,2013-07-24 06:10:00,
2013-07-24 02:20:00,64.5,62.1,29.57,WNW,287,0.0,0.0,92,0.00,,---,0.00,VWS V14.01,2013-07-24 06:20:00,
2013-07-24 02:25:00,64.5,62.1,29.56,WNW,287,0.0,0.0,92,0.00,,---,0.00,VWS V14.01,2013-07-24 06:25:00,
2013-07-24 02:30:00,64.5,62.1,29.56,WNW,287,0.0,0.0,92,0.00,,---,0.00,VWS V14.01,2013-07-24 06:30:00,
2013-07-24 02:35:00,64.5,62.1,29.57,WNW,287,0.0,0.0,92,0.00,,---,0.00,VWS V14.01,2013-07-24 06:35:00,
2013-07-24 02:45:00,64.6,62.2,29.56,WNW,287,0.0,0.0,92,0.00,,---,0.00,VWS V14.01,2013-07-24 06:45:00,
2013-07-24 02:55:00,64.6,62.2,29.57,WNW,287,0.0,0.0,92,0.00,,---,0.00,VWS V14.01,2013-07-24 06:55:00,
2013-07-24 03:05:00,64.5,62.1,29.56,WNW,287,0.0,0.0,92,0.00,,---,0.00,VWS V14.01,2013-07-24 07:05:00,
2013-07-24 03:10:00,64.5,62.1,29.56,WNW,287,0.0,0.0,92,0.00,,---,0.00,VWS V14.01,2013-07-24 07:10:00,
2013-07-24 03:20:00,64.5,62.1,29.56,WNW,287,0.0,0.0,92,0.00,,---,0.00,VWS V14.01,2013-07-24 07:20:00,
2013-07-24 03:25:00,64.5,62.1,29.56,WNW,287,0.0,0.0,92,0.00,,---,0.00,VWS V14.01,2013-07-24 07:25:00,
2013-07-24 03:35:00,64.2,61.8,29.57,WNW,287,0.0,1.0,92,0.00,,---,0.00,VWS V14.01,2013-07-24 07:35:00,
2013-07-24 03:40:00,64.1,61.7,29.57,WNW,287,0.0,0.0,92,0.00,,---,0.00,VWS V14.01,2013-07-24 07:40:00,
2013-07-24 03:50:00,63.9,61.8,29.57,WNW,287,0.0,0.0,93,0.00,,---,0.00,VWS V14.01,2013-07-24 07:50:00,
2013-07-24 03:55:00,63.9,61.8,29.57,WNW,287,0.0,1.0,93,0.00,,---,0.00,VWS V14.01,2013-07-24 07:55:00,
2013-07-24 04:05:00,63.9,61.8,29.57,WNW,287,0.0,0.0,93,0.00,,---,0.00,VWS V14.01,2013-07-24 08:05:00,
2013-07-24 04:10:00,63.9,61.8,29.57,WNW,287,0.0,0.0,93,0.00,,---,0.00,VWS V14.01,2013-07-24 08:10:00,
2013-07-24 04:20:00,63.8,61.7,29.57,WNW,287,0.0,0.0,93,0.00,,---,0.00,VWS V14.01,2013-07-24 08:20:00,
2013-07-24 04:30:00,63.8,61.7,29.57,WNW,287,0.0,0.0,93,0.00,,---,0.00,VWS V14.01,2013-07-24 08:30:00,
2013-07-24 04:35:00,63.8,61.7,29.57,WNW,287,0.0,0.0,93,0.00,,---,0.00,VWS V14.01,2013-07-24 08:35:00,
2013-07-24 04:40:00,63.8,61.7,29.56,WNW,287,0.0,0.0,93,0.00,,---,0.00,VWS V14.01,2013-07-24 08:40:00,
2013-07-24 04:50:00,63.9,61.8,29.57,WNW,287,0.0,0.0,93,0.00,,---,0.00,VWS V14.01,2013-07-24 08:50:00,
2013-07-24 05:00:00,63.9,61.8,29.57,WNW,287,0.0,0.0,93,0.00,,---,0.00,VWS V14.01,2013-07-24 09:00:00,
2013-07-24 05:10:00,63.9,61.8,29.58,WNW,287,0.0,0.0,93,0.00,,---,0.00,VWS V14.01,2013-07-24 09:10:00,
2013-07-24 05:15:00,63.9,61.8,29.58,WNW,287,0.0,0.0,93,0.00,,---,0.00,VWS V14.01,2013-07-24 09:15:00,
2013-07-24 05:20:00,63.8,61.7,29.58,WNW,287,0.0,0.0,93,0.00,,---,0.00,VWS V14.01,2013-07-24 09:20:00,
2013-07-24 05:25:00,63.9,61.8,29.57,WNW,287,0.0,0.0,93,0.00,,---,0.00,VWS V14.01,2013-07-24 09:25:00,
2013-07-24 05:30:00,63.9,61.8,29.57,WNW,287,0.0,0.0,93,0.00,,---,0.00,VWS V14.01,2013-07-24 09:30:00,
2013-07-24 05:40:00,64.0,61.9,29.58,WNW,287,0.0,0.0,93,0.00,,---,0.00,VWS V14.01,2013-07-24 09:40:00,
2013-07-24 05:45:00,64.0,61.6,29.58,WNW,287,0.0,0.0,92,0.00,,---,0.00,VWS V14.01,2013-07-24 09:45:00,
2013-07-24 05:55:00,64.1,61.7,29.58,WNW,287,0.0,0.0,92,0.00,,---,0.00,VWS V14.01,2013-07-24 09:55:00,
2013-07-24 06:00:00,64.1,61.7,29.58,WNW,287,0.0,0.0,92,0.00,,---,0.00,VWS V14.01,2013-07-24 10:00:00,
2013-07-24 06:10:00,64.2,61.8,29.58,WNW,287,0.0,0.0,92,0.00,,---,0.00,VWS V14.01,2013-07-24 10:10:00,
2013-07-24 06:20:00,64.5,62.1,29.58,WNW,287,0.0,0.0,92,0.00,,---,0.00,VWS V14.01,2013-07-24 10:20:00,
2013-07-24 06:25:00,64.7,62.3,29.57,WNW,287,0.0,0.0,92,0.00,,---,0.00,VWS V14.01,2013-07-24 10:25:00,
2013-07-24 06:30:00,65.0,62.6,29.57,WNW,287,0.0,0.0,92,0.00,,---,0.00,VWS V14.01,2013-07-24 10:30:00,
2013-07-24 06:40:00,65.4,63.0,29.58,WNW,287,0.0,0.0,92,0.00,,---,0.00,VWS V14.01,2013-07-24 10:40:00,
2013-07-24 06:45:00,65.7,63.3,29.57,WNW,287,0.0,0.0,92,0.00,,---,0.00,VWS V14.01,2013-07-24 10:45:00,
2013-07-24 06:55:00,65.9,63.5,29.57,WNW,287,0.0,0.0,92,0.00,,---,0.00,VWS V14.01,2013-07-24 10:55:00,
2013-07-24 07:00:00,66.1,63.7,29.57,WNW,287,0.0,1.0,92,0.00,,---,0.00,VWS V14.01,2013-07-24 11:00:00,
2013-07-24 07:10:00,66.3,63.9,29.58,WNW,287,0.0,2.0,92,0.00,,---,0.00,VWS V14.01,2013-07-24 11:10:00,
2013-07-24 07:15:00,66.3,63.9,29.58,WNW,287,0.0,0.0,92,0.00,,---,0.00,VWS V14.01,2013-07-24 11:15:00,
2013-07-24 07:25:00,66.5,64.1,29.58,WNW,287,2.0,2.0,92,0.00,,---,0.00,VWS V14.01,2013-07-24 11:25:00,
2013-07-24 07:30:00,66.5,64.1,29.58,WNW,287,0.0,3.0,92,0.00,,---,0.00,VWS V14.01,2013-07-24 11:30:00,
2013-07-24 07:35:00,66.6,64.2,29.58,WNW,287,0.0,0.0,92,0.00,,---,0.00,VWS V14.01,2013-07-24 11:35:00,
2013-07-24 07:45:00,66.9,64.5,29.59,WNW,287,0.0,1.0,92,0.00,,---,0.00,VWS V14.01,2013-07-24 11:45:00,
2013-07-24 07:55:00,67.2,64.8,29.59,WNW,287,0.0,1.0,92,0.00,,---,0.00,VWS V14.01,2013-07-24 11:55:00,
2013-07-24 08:00:00,67.2,65.1,29.59,WNW,287,0.0,1.0,93,0.00,,---,0.00,VWS V14.01,2013-07-24 12:00:00,
2013-07-24 08:05:00,67.3,65.2,29.60,WNW,287,0.0,0.0,93,0.00,,---,0.00,VWS V14.01,2013-07-24 12:05:00,
2013-07-24 08:15:00,67.6,65.5,29.60,WNW,287,1.0,1.0,93,0.00,,---,0.00,VWS V14.01,2013-07-24 12:15:00,
2013-07-24 08:20:00,67.7,65.6,29.60,WNW,287,0.0,1.0,93,0.00,,---,0.00,VWS V14.01,2013-07-24 12:20:00,
2013-07-24 08:25:00,67.7,65.6,29.60,WNW,287,0.0,0.0,93,0.00,,---,0.00,VWS V14.01,2013-07-24 12:25:00,
2013-07-24 08:35:00,68.3,66.2,29.61,WNW,287,0.0,1.0,93,0.00,,---,0.00,VWS V14.01,2013-07-24 12:35:00,
2013-07-24 08:40:00,68.5,66.4,29.61,WNW,287,0.0,1.0,93,0.00,,---,0.00,VWS V14.01,2013-07-24 12:40:00,
2013-07-24 08:45:00,68.7,66.6,29.61,WNW,287,0.0,1.0,93,0.00,,---,0.00,VWS V14.01,2013-07-24 12:45:00,
2013-07-24 08:55:00,69.0,66.6,29.62,WNW,287,3.0,4.0,92,0.00,,---,0.00,VWS V14.01,2013-07-24 12:55:00,
2013-07-24 09:00:00,69.1,66.7,29.62,WNW,287,0.0,4.0,92,0.00,,---,0.00,VWS V14.01,2013-07-24 13:00:00,
2013-07-24 09:10:00,69.6,67.2,29.62,WNW,287,0.0,2.0,92,0.00,,---,0.00,VWS V14.01,2013-07-24 13:10:00,
2013-07-24 09:15:00,70.0,67.6,29.62,WNW,287,0.0,1.0,92,0.00,,---,0.00,VWS V14.01,2013-07-24 13:15:00,
2013-07-24 09:20:00,70.4,67.7,29.62,WNW,287,0.0,0.0,91,0.00,,---,0.00,VWS V14.01,2013-07-24 13:20:00,
2013-07-24 09:30:00,72.1,68.3,29.62,SW,234,0.0,2.0,88,0.00,,---,0.00,VWS V14.01,2013-07-24 13:30:00,
2013-07-24 09:40:00,72.5,68.8,29.61,SW,232,0.0,0.0,88,0.00,,---,0.00,VWS V14.01,2013-07-24 13:40:00,
2013-07-24 09:45:00,72.9,68.8,29.62,SW,232,0.0,0.0,87,0.00,,---,0.00,VWS V14.01,2013-07-24 13:45:00,
2013-07-24 09:50:00,73.4,69.3,29.62,SW,232,0.0,0.0,87,0.00,,---,0.00,VWS V14.01,2013-07-24 13:50:00,
2013-07-24 09:55:00,73.6,68.8,29.62,SW,232,0.0,0.0,85,0.00,,---,0.00,VWS V14.01,2013-07-24 13:55:00,
2013-07-24 10:00:00,73.9,68.8,29.62,SW,232,0.0,0.0,84,0.00,,---,0.00,VWS V14.01,2013-07-24 14:00:00,
2013-07-24 10:05:00,74.2,69.4,29.63,SW,232,0.0,0.0,85,0.00,,---,0.00,VWS V14.01,2013-07-24 14:05:00,
2013-07-24 10:15:00,74.3,69.5,29.63,SW,232,0.0,0.0,85,0.00,,---,0.00,VWS V14.01,2013-07-24 14:15:00,
2013-07-24 10:20:00,74.6,70.1,29.63,SW,232,0.0,1.0,86,0.00,,---,0.00,VWS V14.01,2013-07-24 14:20:00,
2013-07-24 10:25:00,74.8,68.6,29.63,SW,232,0.0,0.0,81,0.00,,---,0.00,VWS V14.01,2013-07-24 14:25:00,
2013-07-24 10:30:00,75.3,70.1,29.63,SW,232,0.0,0.0,84,0.00,,---,0.00,VWS V14.01,2013-07-24 14:30:00,
2013-07-24 10:40:00,75.1,68.5,29.63,SW,232,0.0,0.0,80,0.00,,---,0.00,VWS V14.01,2013-07-24 14:40:00,
2013-07-24 10:45:00,74.6,66.9,29.64,WNW,300,1.0,5.0,77,0.00,,---,0.00,VWS V14.01,2013-07-24 14:45:00,
2013-07-24 10:50:00,74.6,66.5,29.64,WNW,300,1.0,3.0,76,0.00,,---,0.00,VWS V14.01,2013-07-24 14:50:00,
2013-07-24 10:55:00,74.9,67.2,29.64,WNW,300,1.0,4.0,77,0.00,,---,0.00,VWS V14.01,2013-07-24 14:55:00,
2013-07-24 11:00:00,75.1,67.8,29.64,NW,317,6.0,7.0,78,0.00,,---,0.00,VWS V14.01,2013-07-24 15:00:00,
2013-07-24 11:10:00,75.5,66.6,29.65,NW,325,9.0,15.0,74,0.00,,---,0.00,VWS V14.01,2013-07-24 15:10:00,
2013-07-24 11:20:00,75.1,66.2,29.66,NW,309,10.0,10.0,74,0.00,,---,0.00,VWS V14.01,2013-07-24 15:20:00,
2013-07-24 11:30:00,75.3,66.4,29.66,NW,322,2.0,9.0,74,0.00,,---,0.00,VWS V14.01,2013-07-24 15:30:00,
2013-07-24 11:35:00,75.3,66.8,29.67,ENE,78,1.0,4.0,75,0.00,,---,0.00,VWS V14.01,2013-07-24 15:35:00,
2013-07-24 11:40:00,74.6,66.5,29.67,East,95,0.0,7.0,76,0.00,,---,0.00,VWS V14.01,2013-07-24 15:40:00,
2013-07-24 11:45:00,73.2,65.2,29.68,WNW,301,0.0,4.0,76,0.00,,---,0.00,VWS V14.01,2013-07-24 15:45:00,
2013-07-24 11:55:00,71.7,64.8,29.69,WNW,292,0.0,3.0,79,0.00,,---,0.00,VWS V14.01,2013-07-24 15:55:00,
2013-07-24 12:00:00,71.2,64.7,29.69,WNW,292,0.0,3.0,80,0.00,,---,0.00,VWS V14.01,2013-07-24 16:00:00,
2013-07-24 12:10:00,70.0,62.8,29.70,West,275,2.0,2.0,78,0.00,,---,0.00,VWS V14.01,2013-07-24 16:10:00,
2013-07-24 12:15:00,69.7,61.8,29.71,NW,308,1.0,3.0,76,0.00,,---,0.00,VWS V14.01,2013-07-24 16:15:00,
2013-07-24 12:25:00,69.3,61.0,29.71,NW,324,1.0,4.0,75,0.00,,---,0.00,VWS V14.01,2013-07-24 16:25:00,
2013-07-24 12:35:00,69.1,60.8,29.71,NW,322,4.0,5.0,75,0.00,,---,0.00,VWS V14.01,2013-07-24 16:35:00,
2013-07-24 12:40:00,69.2,61.3,29.72,NW,323,4.0,7.0,76,0.00,,---,0.00,VWS V14.01,2013-07-24 16:40:00,
2013-07-24 12:45:00,69.2,61.0,29.72,NW,325,0.0,6.0,75,0.00,,---,0.00,VWS V14.01,2013-07-24 16:45:00,
2013-07-24 12:50:00,69.4,61.1,29.71,NW,304,3.0,5.0,75,0.00,,---,0.00,VWS V14.01,2013-07-24 16:50:00,
2013-07-24 12:55:00,69.9,63.1,29.72,NW,321,1.0,6.0,79,0.00,,---,0.00,VWS V14.01,2013-07-24 16:55:00,
2013-07-24 13:00:00,69.7,61.8,29.72,NW,322,1.0,4.0,76,0.00,,---,0.00,VWS V14.01,2013-07-24 17:00:00,
2013-07-24 13:10:00,69.4,61.5,29.72,NW,322,1.0,5.0,76,0.00,,---,0.00,VWS V14.01,2013-07-24 17:10:00,
2013-07-24 13:15:00,69.5,62.0,29.72,NW,322,1.0,3.0,77,0.00,,---,0.00,VWS V14.01,2013-07-24 17:15:00,
2013-07-24 13:20:00,70.2,62.7,29.72,NW,325,5.0,9.0,77,0.00,,---,0.00,VWS V14.01,2013-07-24 17:20:00,
2013-07-24 13:30:00,70.6,62.7,29.72,NW,325,6.0,10.0,76,0.00,,---,0.00,VWS V14.01,2013-07-24 17:30:00,
2013-07-24 13:40:00,70.8,62.5,29.72,SE,136,1.0,3.0,75,0.00,,---,0.00,VWS V14.01,2013-07-24 17:40:00,
2013-07-24 13:50:00,70.8,62.1,29.72,WSW,250,0.0,3.0,74,0.00,,---,0.00,VWS V14.01,2013-07-24 17:50:00,
2013-07-24 13:55:00,71.1,62.4,29.72,NW,304,2.0,4.0,74,0.00,,---,0.00,VWS V14.01,2013-07-24 17:55:00,
2013-07-24 14:00:00,71.3,61.0,29.72,NW,311,0.0,5.0,70,0.00,,---,0.00,VWS V14.01,2013-07-24 18:00:00,
2013-07-24 14:10:00,72.2,62.3,29.72,South,173,1.0,3.0,71,0.00,,---,0.00,VWS V14.01,2013-07-24 18:10:00,
2013-07-24 14:15:00,72.5,61.8,29.71,NW,318,0.0,10.0,69,0.00,,---,0.00,VWS V14.01,2013-07-24 18:15:00,
2013-07-24 14:20:00,72.0,61.7,29.72,NW,313,1.0,3.0,70,0.00,,---,0.00,VWS V14.01,2013-07-24 18:20:00,
2013-07-24 14:25:00,71.6,61.3,29.72,NW,313,0.0,3.0,70,0.00,,---,0.00,VWS V14.01,2013-07-24 18:25:00,
2013-07-24 14:35:00,71.9,61.2,29.72,NW,313,0.0,5.0,69,0.00,,---,0.00,VWS V14.01,2013-07-24 18:35:00,
2013-07-24 14:40:00,72.3,62.8,29.72,NW,304,3.0,3.0,72,0.00,,---,0.00,VWS V14.01,2013-07-24 18:40:00,
2013-07-24 14:50:00,73.5,63.1,29.72,WNW,289,1.0,4.0,70,0.00,,---,0.00,VWS V14.01,2013-07-24 18:50:00,
2013-07-24 14:55:00,73.7,61.7,29.72,NW,304,0.0,9.0,66,0.00,,---,0.00,VWS V14.01,2013-07-24 18:55:00,
2013-07-24 15:00:00,73.7,62.1,29.72,SW,236,5.0,5.0,67,0.00,,---,0.00,VWS V14.01,2013-07-24 19:00:00,
2013-07-24 15:10:00,74.0,62.8,29.72,WSW,239,0.0,3.0,68,0.00,,---,0.00,VWS V14.01,2013-07-24 19:10:00,
2013-07-24 15:20:00,74.0,62.4,29.72,WSW,248,0.0,6.0,67,0.00,,---,0.00,VWS V14.01,2013-07-24 19:20:00,
2013-07-24 15:25:00,74.1,62.0,29.72,SSW,198,0.0,4.0,66,0.00,,---,0.00,VWS V14.01,2013-07-24 19:25:00,
2013-07-24 15:30:00,73.9,61.0,29.72,South,175,5.0,5.0,64,0.00,,---,0.00,VWS V14.01,2013-07-24 19:30:00,
2013-07-24 15:40:00,73.0,61.0,29.74,WNW,292,1.0,5.0,66,0.00,,---,0.00,VWS V14.01,2013-07-24 19:40:00,
2013-07-24 15:50:00,72.9,60.5,29.74,WNW,292,2.0,3.0,65,0.00,,---,0.00,VWS V14.01,2013-07-24 19:50:00,
2013-07-24 16:00:00,72.4,60.4,29.74,NNW,333,3.0,8.0,66,0.00,,---,0.00,VWS V14.01,2013-07-24 20:00:00,
2013-07-24 16:10:00,72.9,60.5,29.75,NW,314,1.0,5.0,65,0.00,,---,0.00,VWS V14.01,2013-07-24 20:10:00,
2013-07-24 16:15:00,73.5,61.0,29.75,WSW,258,0.0,5.0,65,0.00,,---,0.00,VWS V14.01,2013-07-24 20:15:00,
2013-07-24 16:20:00,73.4,61.4,29.75,NW,311,3.0,5.0,66,0.00,,---,0.00,VWS V14.01,2013-07-24 20:20:00,
2013-07-24 16:30:00,72.2,60.7,29.76,WNW,283,1.0,6.0,67,0.00,,---,0.00,VWS V14.01,2013-07-24 20:30:00,
2013-07-24 16:40:00,72.1,60.5,29.76,NW,325,0.0,9.0,67,0.00,,---,0.00,VWS V14.01,2013-07-24 20:40:00,
2013-07-24 16:45:00,72.3,60.7,29.76,NW,307,4.0,4.0,67,0.00,,---,0.00,VWS V14.01,2013-07-24 20:45:00,
2013-07-24 16:50:00,72.0,61.3,29.77,NW,306,0.0,5.0,69,0.00,,---,0.00,VWS V14.01,2013-07-24 20:50:00,
2013-07-24 16:55:00,71.5,59.6,29.77,WNW,298,0.0,3.0,66,0.00,,---,0.00,VWS V14.01,2013-07-24 20:55:00,
2013-07-24 17:05:00,72.0,60.9,29.78,NW,324,7.0,9.0,68,0.00,,---,0.00,VWS V14.01,2013-07-24 21:05:00,
2013-07-24 17:21:00,71.4,60.3,29.78,NNW,337,2.0,7.0,68,0.00,,---,0.00,VWS V14.01,2013-07-24 21:21:00,
2013-07-24 17:35:00,71.3,59.8,29.79,WNW,291,1.0,4.0,67,0.00,,---,0.00,VWS V14.01,2013-07-24 21:35:00,
2013-07-24 17:41:00,71.3,59.4,29.79,SSE,148,0.0,2.0,66,0.00,,---,0.00,VWS V14.01,2013-07-24 21:41:00,
2013-07-24 17:51:00,72.3,60.7,29.79,SW,224,0.0,1.0,67,0.00,,---,0.00,VWS V14.01,2013-07-24 21:51:00,
2013-07-24 18:16:00,70.2,59.2,29.81,East,82,0.0,3.0,68,0.00,,---,0.00,VWS V14.01,2013-07-24 22:16:00,
2013-07-24 18:36:00,67.9,57.0,29.82,NW,310,0.0,2.0,68,0.00,,---,0.00,VWS V14.01,2013-07-24 22:36:00,
2013-07-24 18:47:00,67.0,57.3,29.82,NW,310,0.0,1.0,71,0.00,,---,0.00,VWS V14.01,2013-07-24 22:47:00,
2013-07-24 18:55:00,66.5,56.0,29.84,NW,304,0.0,0.0,69,0.00,,---,0.00,VWS V14.01,2013-07-24 22:55:00,
2013-07-24 19:51:00,64.0,54.0,29.87,NW,306,0.0,3.0,70,0.00,,---,0.00,VWS V14.01,2013-07-24 23:51:00,
2013-07-24 19:56:00,63.5,54.7,29.87,South,171,1.0,1.0,73,0.00,,---,0.00,VWS V14.01,2013-07-24 23:56:00,
2013-07-24 20:11:00,63.0,54.2,29.88,WNW,291,0.0,0.0,73,0.00,,---,0.00,VWS V14.01,2013-07-25 00:11:00,
2013-07-24 20:21:00,62.1,53.7,29.89,WSW,258,1.0,2.0,74,0.00,,---,0.00,VWS V14.01,2013-07-25 00:21:00,
2013-07-24 21:36:00,59.4,50.4,29.94,West,269,1.0,6.0,72,0.00,,---,0.00,VWS V14.01,2013-07-25 01:36:00,
2013-07-24 21:46:00,59.0,51.1,29.94,WSW,257,1.0,1.0,75,0.00,,---,0.00,VWS V14.01,2013-07-25 01:46:00,
2013-07-24 21:50:00,58.9,50.6,29.94,West,270,2.0,6.0,74,0.00,,---,0.00,VWS V14.01,2013-07-25 01:50:00,
2013-07-24 21:55:00,58.7,50.5,29.95,WNW,292,1.0,7.0,74,0.00,,---,0.00,VWS V14.01,2013-07-25 01:55:00,
2013-07-24 22:00:00,58.5,49.5,29.95,NW,315,2.0,10.0,72,0.00,,---,0.00,VWS V14.01,2013-07-25 02:00:00,
2013-07-24 22:05:00,58.1,48.8,29.94,WNW,292,1.0,6.0,71,0.00,,---,0.00,VWS V14.01,2013-07-25 02:05:00,
2013-07-24 22:10:00,57.9,48.9,29.95,North,0,1.0,4.0,72,0.00,,---,0.00,VWS V14.01,2013-07-25 02:10:00,
2013-07-24 22:15:00,57.6,48.3,29.95,North,0,1.0,4.0,71,0.00,,---,0.00,VWS V14.01,2013-07-25 02:15:00,
2013-07-24 22:20:00,57.5,48.6,29.95,WSW,248,0.0,2.0,72,0.00,,---,0.00,VWS V14.01,2013-07-25 02:20:00,
2013-07-24 22:25:00,57.3,49.1,29.95,WNW,292,0.0,6.0,74,0.00,,---,0.00,VWS V14.01,2013-07-25 02:25:00,
2013-07-24 22:30:00,57.6,49.0,29.95,NW,315,1.0,5.0,73,0.00,,---,0.00,VWS V14.01,2013-07-25 02:30:00,
2013-07-24 22:35:00,57.6,50.1,29.95,West,270,0.0,2.0,76,0.00,,---,0.00,VWS V14.01,2013-07-25 02:35:00,
2013-07-24 22:40:00,57.4,48.5,29.95,West,270,0.0,1.0,72,0.00,,---,0.00,VWS V14.01,2013-07-25 02:40:00,
2013-07-24 22:45:00,56.9,48.7,29.95,East,90,0.0,3.0,74,0.00,,---,0.00,VWS V14.01,2013-07-25 02:45:00,
2013-07-24 22:50:00,56.3,48.1,29.96,East,90,0.0,2.0,74,0.00,,---,0.00,VWS V14.01,2013-07-25 02:50:00,
2013-07-24 22:55:00,56.0,48.2,29.95,East,90,0.0,1.0,75,0.00,,---,0.00,VWS V14.01,2013-07-25 02:55:00,
2013-07-24 23:00:00,55.9,47.7,29.96,East,90,0.0,6.0,74,0.00,,---,0.00,VWS V14.01,2013-07-25 03:00:00,
2013-07-24 23:05:00,55.7,47.2,29.97,South,180,0.0,1.0,73,0.00,,---,0.00,VWS V14.01,2013-07-25 03:05:00,
2013-07-24 23:10:00,55.7,47.5,29.97,SSW,202,0.0,1.0,74,0.00,,---,0.00,VWS V14.01,2013-07-25 03:10:00,
2013-07-24 23:15:00,55.5,47.7,29.97,SSE,158,0.0,1.0,75,0.00,,---,0.00,VWS V14.01,2013-07-25 03:15:00,
2013-07-24 23:20:00,55.1,47.7,29.97,SSE,158,0.0,1.0,76,0.00,,---,0.00,VWS V14.01,2013-07-25 03:20:00,
2013-07-24 23:25:00,54.7,48.0,29.98,SE,135,0.0,1.0,78,0.00,,---,0.00,VWS V14.01,2013-07-25 03:25:00,
2013-07-24 23:30:00,54.2,47.8,29.98,SE,135,0.0,1.0,79,0.00,,---,0.00,VWS V14.01,2013-07-25 03:30:00,
2013-07-24 23:35:00,53.8,47.8,29.98,SE,135,0.0,1.0,80,0.00,,---,0.00,VWS V14.01,2013-07-25 03:35:00,
2013-07-24 23:40:00,53.4,47.7,29.98,SE,135,0.0,0.0,81,0.00,,---,0.00,VWS V14.01,2013-07-25 03:40:00,
2013-07-24 23:45:00,52.9,47.6,29.98,SE,135,0.0,1.0,82,0.00,,---,0.00,VWS V14.01,2013-07-25 03:45:00,
2013-07-24 23:50:00,52.6,47.6,29.99,SE,135,0.0,1.0,83,0.00,,---,0.00,VWS V14.01,2013-07-25 03:50:00,
2013-07-24 23:55:00,52.3,47.6,29.99,SE,135,0.0,0.0,84,0.00,,---,0.00,VWS V14.01,2013-07-25 03:55:00,